createdAt,value
2019-02-15T00:01:45.711Z,6.89
2019-02-15T00:04:15.161Z,6.99
2019-02-15T00:06:44.370Z,6.97
2019-02-15T00:09:13.890Z,6.96
2019-02-15T00:11:43.170Z,7.00
2019-02-15T00:14:12.900Z,6.99
2019-02-15T00:16:42.469Z,6.98
2019-02-15T00:19:24.528Z,6.91
2019-02-15T00:21:55.044Z,6.93
2019-02-15T00:24:24.280Z,6.92
2019-02-15T00:26:53.549Z,6.92
2019-02-15T00:29:22.765Z,6.87
2019-02-15T00:31:52.014Z,6.90
2019-02-15T00:34:21.260Z,6.87
2019-02-15T00:36:50.906Z,6.87
2019-02-15T00:39:20.112Z,6.86
2019-02-15T00:41:49.388Z,6.81
2019-02-15T00:44:19.930Z,6.82
2019-02-15T00:47:05.463Z,6.78
2019-02-15T00:49:52.928Z,6.76
2019-02-15T00:52:43.338Z,6.77
2019-02-15T00:55:31.910Z,6.76
2019-02-15T00:58:17.823Z,6.75
2019-02-15T01:01:18.633Z,6.73
2019-02-15T01:04:11.957Z,6.68
2019-02-15T01:06:52.485Z,6.70
2019-02-15T01:09:49.531Z,6.67
2019-02-15T01:12:29.026Z,6.62
2019-02-15T01:14:58.401Z,6.59
2019-02-15T01:17:27.649Z,6.54
2019-02-15T01:19:56.883Z,6.52
2019-02-15T01:22:26.538Z,6.52
2019-02-15T01:24:56.076Z,6.52
2019-02-15T01:27:34.306Z,6.46
2019-02-15T01:30:42.218Z,6.38
2019-02-15T01:33:22.693Z,6.43
2019-02-15T01:36:09.792Z,6.36
2019-02-15T01:39:07.254Z,6.38
2019-02-15T01:41:58.480Z,6.32
2019-02-15T01:44:49.380Z,6.35
2019-02-15T01:47:23.143Z,6.33
2019-02-15T01:49:52.510Z,6.30
2019-02-15T01:52:24.688Z,6.25
2019-02-15T01:54:56.036Z,6.29
2019-02-15T01:57:27.105Z,6.25
2019-02-15T01:59:56.584Z,6.23
2019-02-15T02:02:28.515Z,6.20
2019-02-15T02:04:57.772Z,6.20
2019-02-15T02:07:27.074Z,6.18
2019-02-15T02:09:56.303Z,6.20
2019-02-15T02:12:25.867Z,6.19
2019-02-15T02:14:55.095Z,6.12
2019-02-15T02:17:24.306Z,6.14
2019-02-15T02:19:56.355Z,6.14
2019-02-15T02:22:25.855Z,5.98
2019-02-15T02:24:55.314Z,5.96
2019-02-15T02:27:24.576Z,5.94
2019-02-15T02:29:53.985Z,5.98
2019-02-15T02:32:24.617Z,5.97
2019-02-15T02:34:53.876Z,5.98
2019-02-15T02:37:23.387Z,5.85
2019-02-15T02:39:52.614Z,5.83
2019-02-15T02:42:21.886Z,5.82
2019-02-15T02:44:51.145Z,5.86
2019-02-15T02:47:20.676Z,5.86
2019-02-15T02:49:49.945Z,5.82
2019-02-15T02:52:19.175Z,5.84
2019-02-15T02:54:48.387Z,5.78
2019-02-15T02:57:17.936Z,5.75
2019-02-15T02:59:47.171Z,5.78
2019-02-15T03:02:22.025Z,5.82
2019-02-15T03:04:51.552Z,5.83
2019-02-15T03:07:20.770Z,5.79
2019-02-15T03:09:50.046Z,5.78
2019-02-15T03:12:19.404Z,5.73
2019-02-15T03:14:49.179Z,5.75
2019-02-15T03:17:18.930Z,5.75
2019-02-15T03:19:48.138Z,5.77
2019-02-15T03:22:17.768Z,5.75
2019-02-15T03:24:47.083Z,5.76
2019-02-15T03:27:17.205Z,5.72
2019-02-15T03:29:46.478Z,5.66
2019-02-15T03:32:15.748Z,5.70
2019-02-15T03:34:45.276Z,5.72
2019-02-15T03:37:33.628Z,5.69
2019-02-15T03:40:08.252Z,5.69
2019-02-15T03:42:37.523Z,5.67
2019-02-15T03:45:06.934Z,5.62
2019-02-15T03:47:36.444Z,5.64
2019-02-15T03:50:08.762Z,5.58
2019-02-15T03:52:38.040Z,5.59
2019-02-15T03:55:07.286Z,5.59
2019-02-15T03:57:36.831Z,5.57
2019-02-15T04:00:11.040Z,5.55
2019-02-15T04:02:40.544Z,5.53
2019-02-15T04:05:09.877Z,5.51
2019-02-15T04:07:39.176Z,5.48
2019-02-15T04:10:09.362Z,5.44
2019-02-15T04:12:38.973Z,5.42
2019-02-15T04:15:09.000Z,5.39
2019-02-15T04:17:38.361Z,5.39
2019-02-15T04:20:08.851Z,5.39
2019-02-15T04:22:38.451Z,5.37
2019-02-15T04:25:07.835Z,5.42
2019-02-15T04:27:37.475Z,5.40
2019-02-15T04:30:09.092Z,5.32
2019-02-15T04:32:38.447Z,5.36
2019-02-15T04:35:07.965Z,5.30
2019-02-15T04:37:37.223Z,5.28
2019-02-15T04:40:07.505Z,5.28
2019-02-15T04:42:36.731Z,5.29
2019-02-15T04:45:06.459Z,5.29
2019-02-15T04:47:35.907Z,5.28
2019-02-15T04:50:09.889Z,5.28
2019-02-15T04:52:39.448Z,5.30
2019-02-15T04:55:08.709Z,5.30
2019-02-15T04:57:37.910Z,5.30
2019-02-15T05:00:07.462Z,5.26
2019-02-15T05:02:36.985Z,5.22
2019-02-15T05:05:06.249Z,5.22
2019-02-15T05:07:35.588Z,5.22
2019-02-15T05:10:07.170Z,5.18
2019-02-15T05:12:36.702Z,5.21
2019-02-15T05:15:06.339Z,5.21
2019-02-15T05:17:35.599Z,5.16
2019-02-15T05:20:05.856Z,5.15
2019-02-15T05:22:35.128Z,5.18
2019-02-15T05:25:04.700Z,5.13
2019-02-15T05:27:33.948Z,5.16
2019-02-15T05:30:05.540Z,5.10
2019-02-15T05:32:35.049Z,5.15
2019-02-15T05:35:04.316Z,5.15
2019-02-15T05:37:33.588Z,5.05
2019-02-15T05:40:03.539Z,4.97
2019-02-15T05:42:33.069Z,4.97
2019-02-15T05:45:04.201Z,5.09
2019-02-15T05:47:33.329Z,5.11
2019-02-15T05:50:04.402Z,5.11
2019-02-15T05:52:33.751Z,5.08
2019-02-15T05:55:03.342Z,5.08
2019-02-15T05:57:33.005Z,5.10
2019-02-15T06:00:04.373Z,5.10
2019-02-15T06:02:33.337Z,5.13
2019-02-15T06:05:04.574Z,5.13
2019-02-15T06:07:34.071Z,5.19
2019-02-15T06:10:06.301Z,5.10
2019-02-15T06:12:35.849Z,5.05
2019-02-15T06:15:14.878Z,5.00
2019-02-15T06:17:36.909Z,5.03
2019-02-15T06:20:09.101Z,5.03
2019-02-15T06:22:38.516Z,4.96
2019-02-15T06:25:08.050Z,4.94
2019-02-15T06:27:37.416Z,4.92
2019-02-15T06:30:06.963Z,4.95
2019-02-15T06:32:36.584Z,4.95
2019-02-15T06:35:07.763Z,4.93
2019-02-15T06:37:37.331Z,4.93
2019-02-15T06:40:07.994Z,4.95
2019-02-15T06:42:37.341Z,4.91
2019-02-15T06:45:07.211Z,4.84
2019-02-15T06:47:36.810Z,4.84
2019-02-15T06:50:08.825Z,4.95
2019-02-15T06:52:38.257Z,4.95
2019-02-15T06:55:08.533Z,4.95
2019-02-15T06:57:38.623Z,4.95
2019-02-15T07:00:34.450Z,4.97
2019-02-15T07:03:15.631Z,4.97
2019-02-15T07:05:44.992Z,4.92
2019-02-15T07:15:33.150Z,4.92
2019-02-15T07:17:55.221Z,4.88
2019-02-15T07:20:24.601Z,4.88
2019-02-15T07:22:54.250Z,4.93
2019-02-15T07:25:23.529Z,5.02
2019-02-15T07:27:52.746Z,5.02
2019-02-15T07:30:22.305Z,5.04
2019-02-15T07:32:51.600Z,4.92
2019-02-15T07:35:21.476Z,4.92
2019-02-15T07:37:52.757Z,5.09
2019-02-15T07:40:22.062Z,5.25
2019-02-15T07:42:51.327Z,5.25
2019-02-15T07:45:22.675Z,5.36
2019-02-15T07:47:52.251Z,5.54
2019-02-15T07:50:21.608Z,5.86
2019-02-15T07:52:51.221Z,6.20
2019-02-15T07:55:20.761Z,6.43
2019-02-15T07:57:50.000Z,6.94
2019-02-15T08:00:19.498Z,7.41
2019-02-15T08:02:48.793Z,7.90
2019-02-15T08:05:18.016Z,8.53
2019-02-15T08:07:47.598Z,9.24
2019-02-15T08:10:17.240Z,9.76
2019-02-15T08:12:46.592Z,10.77
2019-02-15T08:15:16.811Z,11.65
2019-02-15T08:17:50.320Z,12.51
2019-02-15T08:20:20.126Z,13.47
2019-02-15T08:22:49.739Z,14.32
2019-02-15T08:25:19.162Z,15.31
2019-02-15T08:27:48.509Z,16.03
2019-02-15T08:30:18.105Z,16.73
2019-02-15T08:32:47.493Z,17.13
2019-02-15T08:35:16.736Z,17.51
2019-02-15T08:37:46.376Z,17.64
2019-02-15T08:40:22.622Z,17.56
2019-02-15T08:42:51.903Z,17.47
2019-02-15T08:45:21.435Z,17.27
2019-02-15T08:47:50.712Z,16.83
2019-02-15T08:50:19.939Z,16.57
2019-02-15T08:52:49.177Z,16.25
2019-02-15T08:55:18.523Z,15.93
2019-02-15T08:57:48.055Z,15.71
2019-02-15T09:00:17.341Z,15.46
2019-02-15T09:02:46.668Z,15.23
2019-02-15T09:05:16.226Z,15.08
2019-02-15T09:07:45.498Z,14.86
2019-02-15T09:10:14.965Z,14.43
2019-02-15T09:12:44.529Z,14.40
2019-02-15T09:15:16.528Z,14.36
2019-02-15T09:17:45.855Z,14.34
2019-02-15T09:20:15.398Z,14.22
2019-02-15T09:22:44.839Z,14.02
2019-02-15T09:25:14.187Z,14.09
2019-02-15T09:28:11.394Z,14.12
2019-02-15T09:30:40.983Z,14.15
2019-02-15T09:33:10.576Z,14.37
2019-02-15T09:35:39.863Z,14.57
2019-02-15T09:38:09.145Z,14.75
2019-02-15T09:40:38.751Z,14.87
2019-02-15T09:43:08.866Z,15.11
2019-02-15T09:45:38.204Z,15.37
2019-02-15T09:48:07.733Z,15.59
2019-02-15T09:50:37.082Z,15.90
2019-02-15T09:53:06.375Z,16.09
2019-02-15T09:55:35.916Z,16.45
2019-02-15T09:58:07.996Z,16.73
2019-02-15T10:00:37.348Z,17.17
2019-02-15T10:03:06.918Z,17.35
2019-02-15T10:05:36.165Z,17.69
2019-02-15T10:08:08.538Z,17.89
2019-02-15T10:10:38.074Z,18.20
2019-02-15T10:13:07.342Z,18.49
2019-02-15T10:15:36.618Z,18.73
2019-02-15T10:18:06.873Z,18.96
2019-02-15T10:20:36.119Z,19.22
2019-02-15T10:23:05.456Z,19.39
2019-02-15T10:25:34.996Z,19.59
2019-02-15T10:28:06.065Z,19.86
2019-02-15T10:30:35.330Z,20.01
2019-02-15T10:33:04.696Z,20.16
2019-02-15T10:35:33.927Z,20.47
2019-02-15T10:38:06.288Z,20.67
2019-02-15T10:40:35.508Z,21.00
2019-02-15T10:43:05.209Z,21.23
2019-02-15T10:45:35.398Z,21.44
2019-02-15T10:48:07.490Z,21.71
2019-02-15T10:50:37.040Z,21.87
2019-02-15T10:53:06.404Z,22.07
2019-02-15T10:55:35.658Z,22.17
2019-02-15T10:58:06.060Z,22.50
2019-02-15T11:00:35.419Z,22.77
2019-02-15T11:03:04.967Z,23.13
2019-02-15T11:05:34.576Z,23.40
2019-02-15T11:08:06.921Z,23.76
2019-02-15T11:10:36.213Z,24.01
2019-02-15T11:13:05.830Z,24.36
2019-02-15T11:15:35.314Z,24.60
2019-02-15T11:18:06.106Z,24.72
2019-02-15T11:20:35.680Z,24.98
2019-02-15T11:23:05.400Z,25.13
2019-02-15T11:25:34.732Z,25.11
2019-02-15T11:28:05.628Z,25.44
2019-02-15T11:30:35.038Z,25.64
2019-02-15T11:33:04.957Z,25.66
2019-02-15T11:35:34.484Z,25.70
2019-02-15T11:38:04.965Z,25.93
2019-02-15T11:40:34.278Z,26.05
2019-02-15T11:43:03.885Z,26.21
2019-02-15T11:45:33.205Z,26.13
2019-02-15T11:48:04.253Z,26.06
2019-02-15T11:50:33.807Z,26.06
2019-02-15T11:53:03.383Z,25.82
2019-02-15T11:55:33.013Z,25.96
2019-02-15T11:58:04.939Z,25.99
2019-02-15T12:00:35.065Z,25.93
2019-02-15T12:03:04.580Z,25.69
2019-02-15T12:05:34.362Z,25.69
2019-02-15T12:08:06.771Z,25.75
2019-02-15T12:10:36.058Z,25.78
2019-02-15T12:13:05.338Z,25.52
2019-02-15T12:15:34.730Z,25.31
2019-02-15T12:18:07.634Z,25.21
2019-02-15T12:20:36.895Z,25.12
2019-02-15T12:23:06.246Z,24.97
2019-02-15T12:25:35.854Z,24.98
2019-02-15T12:28:13.519Z,24.97
2019-02-15T12:30:42.992Z,25.11
2019-02-15T12:33:12.574Z,25.13
2019-02-15T12:35:41.816Z,25.21
2019-02-15T12:38:11.047Z,25.29
2019-02-15T12:40:46.826Z,25.10
2019-02-15T12:43:16.096Z,25.23
2019-02-15T12:45:45.360Z,25.24
2019-02-15T12:48:15.141Z,25.25
2019-02-15T12:50:44.683Z,25.14
2019-02-15T12:53:14.037Z,24.97
2019-02-15T12:55:43.806Z,25.04
2019-02-15T12:58:13.056Z,25.00
2019-02-15T13:00:42.340Z,25.15
2019-02-15T13:03:12.164Z,25.22
2019-02-15T13:05:41.949Z,25.25
2019-02-15T13:08:11.324Z,25.24
2019-02-15T13:10:42.109Z,25.36
2019-02-15T13:13:11.422Z,25.47
2019-02-15T13:15:40.703Z,25.53
2019-02-15T13:18:10.358Z,25.61
2019-02-15T13:20:39.720Z,25.48
2019-02-15T13:23:09.038Z,25.63
2019-02-15T13:25:38.645Z,25.76
2019-02-15T13:28:07.929Z,25.86
2019-02-15T13:30:37.303Z,26.03
2019-02-15T13:33:06.879Z,26.10
2019-02-15T13:35:36.259Z,26.20
2019-02-15T13:38:08.539Z,26.25
2019-02-15T13:40:37.858Z,26.21
2019-02-15T13:43:07.149Z,26.25
2019-02-15T13:45:36.516Z,26.18
2019-02-15T13:48:06.149Z,26.24
2019-02-15T13:50:35.812Z,26.24
2019-02-15T13:53:05.935Z,26.08
2019-02-15T13:55:35.212Z,25.94
2019-02-15T13:58:08.102Z,25.67
2019-02-15T14:00:37.374Z,25.61
2019-02-15T14:03:06.808Z,25.51
2019-02-15T14:05:36.451Z,25.40
2019-02-15T14:08:08.577Z,25.21
2019-02-15T14:10:38.042Z,24.51
2019-02-15T14:13:07.597Z,23.75
2019-02-15T14:15:37.056Z,23.08
2019-02-15T14:18:09.158Z,22.48
2019-02-15T14:20:39.908Z,22.00
2019-02-15T14:23:09.189Z,21.58
2019-02-15T14:25:38.505Z,21.22
2019-02-15T14:28:08.137Z,20.85
2019-02-15T14:30:37.407Z,20.55
2019-02-15T14:33:06.832Z,20.26
2019-02-15T14:35:36.526Z,20.08
2019-02-15T14:38:06.695Z,19.87
2019-02-15T14:40:36.094Z,19.72
2019-02-15T14:43:06.700Z,19.53
2019-02-15T14:45:35.950Z,19.41
2019-02-15T14:48:06.051Z,19.27
2019-02-15T14:50:35.782Z,19.13
2019-02-15T14:53:05.040Z,19.03
2019-02-15T14:55:34.450Z,18.88
2019-02-15T14:58:07.991Z,18.79
2019-02-15T15:00:37.240Z,18.70
2019-02-15T15:03:06.657Z,18.56
2019-02-15T15:05:36.342Z,18.47
2019-02-15T15:08:08.478Z,18.35
2019-02-15T15:10:37.778Z,18.25
2019-02-15T15:13:07.393Z,18.14
2019-02-15T15:15:36.818Z,18.08
2019-02-15T15:18:13.206Z,18.01
2019-02-15T15:20:40.308Z,17.92
2019-02-15T15:23:09.784Z,17.82
2019-02-15T15:25:39.186Z,17.76
2019-02-15T15:28:09.332Z,17.72
2019-02-15T15:30:38.771Z,17.71
2019-02-15T15:33:08.250Z,17.71
2019-02-15T15:35:38.148Z,17.64
2019-02-15T15:38:07.644Z,17.58
2019-02-15T15:40:37.762Z,17.51
2019-02-15T15:43:08.489Z,17.56
2019-02-15T15:45:37.946Z,17.58
2019-02-15T15:48:07.645Z,17.57
2019-02-15T15:50:37.382Z,17.59
2019-02-15T15:53:07.891Z,17.62
2019-02-15T15:55:37.701Z,17.73
2019-02-15T15:58:08.852Z,17.92
2019-02-15T16:00:39.312Z,18.17
2019-02-15T16:03:08.806Z,18.38
2019-02-15T16:05:39.461Z,18.51
2019-02-15T16:08:08.990Z,18.54
2019-02-15T16:10:38.539Z,18.40
2019-02-15T16:13:08.208Z,18.19
2019-02-15T16:15:37.690Z,17.91
2019-02-15T16:18:07.375Z,17.68
2019-02-15T16:20:37.047Z,17.39
2019-02-15T16:23:06.731Z,17.21
2019-02-15T16:25:36.212Z,17.00
2019-02-15T16:28:09.496Z,16.81
2019-02-15T16:30:39.029Z,16.61
2019-02-15T16:33:10.505Z,16.45
2019-02-15T16:35:40.357Z,16.31
2019-02-15T16:38:09.973Z,16.15
2019-02-15T16:40:39.546Z,16.05
2019-02-15T16:43:09.390Z,15.92
2019-02-15T16:45:38.955Z,15.77
2019-02-15T16:48:08.654Z,15.66
2019-02-15T16:50:39.885Z,15.50
2019-02-15T16:53:09.338Z,15.40
2019-02-15T16:55:38.951Z,15.31
2019-02-15T16:58:09.445Z,15.16
2019-02-15T17:00:40.002Z,15.06
2019-02-15T17:03:10.090Z,14.97
2019-02-15T17:05:40.237Z,14.89
2019-02-15T17:08:10.235Z,14.83
2019-02-15T17:10:39.938Z,14.77
2019-02-15T17:13:10.148Z,14.70
2019-02-15T17:15:39.860Z,14.62
2019-02-15T17:18:10.016Z,14.53
2019-02-15T17:20:40.045Z,14.44
2019-02-15T17:23:09.826Z,14.38
2019-02-15T17:25:39.527Z,14.32
2019-02-15T17:28:10.998Z,14.22
2019-02-15T17:30:40.778Z,14.20
2019-02-15T17:33:10.502Z,14.12
2019-02-15T17:35:40.184Z,14.08
2019-02-15T17:38:10.404Z,14.02
2019-02-15T17:40:40.634Z,13.99
2019-02-15T17:43:10.394Z,13.95
2019-02-15T17:45:47.906Z,13.87
2019-02-15T17:48:20.659Z,13.81
2019-02-15T17:50:52.592Z,13.73
2019-02-15T17:53:25.715Z,13.79
2019-02-15T17:55:57.820Z,13.72
2019-02-15T17:58:30.086Z,13.66
2019-02-15T18:01:06.876Z,13.58
2019-02-15T18:03:41.493Z,13.50
2019-02-15T18:06:14.234Z,13.44
2019-02-15T18:08:46.633Z,13.41
2019-02-15T18:11:19.076Z,13.37
2019-02-15T18:16:14.203Z,13.35
2019-02-15T18:18:43.878Z,13.30
2019-02-15T18:21:13.891Z,13.27
2019-02-15T18:23:45.031Z,13.19
2019-02-15T18:26:14.828Z,13.13
2019-02-15T18:28:44.559Z,13.12
2019-02-15T18:31:16.417Z,13.08
2019-02-15T18:33:45.984Z,13.06
2019-02-15T18:36:15.615Z,12.98
2019-02-15T18:38:45.910Z,12.93
2019-02-15T18:41:15.667Z,12.92
2019-02-15T18:43:45.949Z,12.90
2019-02-15T18:46:16.171Z,12.84
2019-02-15T18:48:45.887Z,12.82
2019-02-15T18:51:16.640Z,12.80
2019-02-15T18:53:46.785Z,12.74
2019-02-15T18:56:16.561Z,12.69
2019-02-15T18:58:46.325Z,12.66
2019-02-15T19:01:17.011Z,12.64
2019-02-15T19:03:47.053Z,12.59
2019-02-15T19:06:19.565Z,12.53
2019-02-15T19:08:50.744Z,12.51
2019-02-15T19:11:20.779Z,12.50
2019-02-15T19:13:50.485Z,12.45
2019-02-15T19:16:21.147Z,12.42
2019-02-15T19:18:50.901Z,12.37
2019-02-15T19:21:20.761Z,12.32
2019-02-15T19:23:53.981Z,12.28
2019-02-15T19:26:23.746Z,12.25
2019-02-15T19:28:53.532Z,12.19
2019-02-15T19:31:24.247Z,12.17
2019-02-15T19:33:54.452Z,12.11
2019-02-15T19:36:25.458Z,12.10
2019-02-15T19:38:55.944Z,12.06
2019-02-15T19:41:25.730Z,12.04
2019-02-15T19:43:56.676Z,12.03
2019-02-15T19:46:27.653Z,11.97
2019-02-15T19:49:01.157Z,11.94
2019-02-15T19:51:31.292Z,11.92
2019-02-15T19:54:03.540Z,11.89
2019-02-15T19:56:33.908Z,11.86
2019-02-15T19:59:04.032Z,11.78
2019-02-15T20:01:34.947Z,11.75
2019-02-15T20:04:06.426Z,11.69
2019-02-15T20:06:39.978Z,11.61
2019-02-15T20:09:10.908Z,11.60
2019-02-15T20:11:40.965Z,11.55
2019-02-15T20:14:11.528Z,11.50
2019-02-15T20:16:41.625Z,11.47
2019-02-15T20:19:11.437Z,11.41
2019-02-15T20:21:41.525Z,11.38
2019-02-15T20:24:12.386Z,11.33
2019-02-15T20:26:42.457Z,11.29
2019-02-15T20:29:12.772Z,11.26
2019-02-15T20:31:45.407Z,11.21
2019-02-15T20:34:15.138Z,11.18
2019-02-15T20:36:45.097Z,11.07
2019-02-15T20:39:15.267Z,11.07
2019-02-15T20:41:45.491Z,10.99
2019-02-15T20:44:15.944Z,10.99
2019-02-15T20:46:45.938Z,10.97
2019-02-15T20:49:16.360Z,10.92
2019-02-15T20:51:47.134Z,10.88
2019-02-15T20:54:18.187Z,10.84
2019-02-15T20:56:48.426Z,10.79
2019-02-15T20:59:20.268Z,10.75
2019-02-15T21:01:49.947Z,10.60
2019-02-15T21:04:20.020Z,10.63
2019-02-15T21:06:49.912Z,10.61
2019-02-15T21:09:22.647Z,10.56
2019-02-15T21:11:53.859Z,10.54
2019-02-15T21:14:25.996Z,10.48
2019-02-15T21:16:56.959Z,10.41
2019-02-15T21:19:31.164Z,10.39
2019-02-15T21:22:03.998Z,10.37
2019-02-15T21:24:34.905Z,10.33
2019-02-15T21:27:05.530Z,10.24
2019-02-15T21:29:37.754Z,10.20
2019-02-15T21:32:10.387Z,10.14
2019-02-15T21:34:40.363Z,10.15
2019-02-15T21:37:10.054Z,10.12
2019-02-15T21:39:40.892Z,10.08
2019-02-15T21:42:12.624Z,10.07
2019-02-15T21:44:45.360Z,10.07
2019-02-15T21:47:15.462Z,10.01
2019-02-15T21:49:45.661Z,9.95
2019-02-15T21:52:16.016Z,9.97
2019-02-15T21:54:49.451Z,9.94
2019-02-15T21:57:19.331Z,9.88
2019-02-15T21:59:48.949Z,9.86
2019-02-15T22:02:20.293Z,9.82
2019-02-15T22:04:49.978Z,9.76
2019-02-15T22:07:19.903Z,9.73
2019-02-15T22:09:49.927Z,9.70
2019-02-15T22:12:19.357Z,9.58
2019-02-15T22:14:49.785Z,9.53
2019-02-15T22:17:20.634Z,9.50
2019-02-15T22:19:50.738Z,9.46
2019-02-15T22:22:20.245Z,9.36
2019-02-15T22:24:50.143Z,9.36
2019-02-15T22:27:19.518Z,9.39
2019-02-15T22:29:48.828Z,9.44
2019-02-15T22:32:18.414Z,9.45
2019-02-15T22:34:48.138Z,9.44
2019-02-15T22:37:17.442Z,9.42
2019-02-15T22:39:46.681Z,9.43
2019-02-15T22:42:16.308Z,9.39
2019-02-15T22:44:45.621Z,9.39
2019-02-15T22:47:17.148Z,9.38
2019-02-15T22:49:49.212Z,9.32
2019-02-15T22:52:18.543Z,9.28
2019-02-15T22:54:47.747Z,9.26
2019-02-15T22:57:16.991Z,9.23
2019-02-15T22:59:46.642Z,9.15
2019-02-15T23:02:15.956Z,9.15
2019-02-15T23:04:45.191Z,9.09
2019-02-15T23:07:14.952Z,9.08
2019-02-15T23:09:44.177Z,9.10
2019-02-15T23:12:13.425Z,9.03
2019-02-15T23:14:42.986Z,9.02
2019-02-15T23:17:13.270Z,8.93
2019-02-15T23:19:42.962Z,9.01
2019-02-15T23:22:18.456Z,9.00
2019-02-15T23:24:47.903Z,8.99
2019-02-15T23:27:17.212Z,9.03
2019-02-15T23:29:47.046Z,9.05
2019-02-15T23:32:16.223Z,9.06
2019-02-15T23:34:45.449Z,9.03
2019-02-15T23:37:16.361Z,9.00
2019-02-15T23:39:46.060Z,8.99
2019-02-15T23:42:15.697Z,8.96
2019-02-15T23:44:45.017Z,8.92
2019-02-15T23:47:14.409Z,8.88
2019-02-15T23:49:43.688Z,8.88
2019-02-15T23:52:13.621Z,8.84
2019-02-15T23:54:42.874Z,8.90
2019-02-15T23:57:12.319Z,8.89
2019-02-15T23:59:41.969Z,8.91
